Time;durP1;ratioP1;P1;durP2;ratioP2;P2;SDS_P1;SDS_P2;PMS_P1;PMS_P2;Temp;Humidity;BMP_temperature;BMP_pressure;BME280_temperature;BME280_humidity;BME280_pressure;Samples;Min_cycle;Max_cycle;Signal;HPM_P1;HPM_P2
2021/09/20 00:00:17;;;;;;;3.78;2.92;;;8.40;99.90;;;;;;5012311;28;20022;-91
2021/09/20 00:02:44;;;;;;;3.67;2.78;;;8.40;99.90;;;;;;5011286;28;20026;-89
2021/09/20 00:05:10;;;;;;;4.07;2.90;;;8.50;99.90;;;;;;5009796;28;20034;-90
2021/09/20 00:07:37;;;;;;;4.30;2.60;;;8.50;99.90;;;;;;5012640;28;20038;-91
2021/09/20 00:10:05;;;;;;;3.60;2.50;;;8.40;99.90;;;;;;5010935;28;20113;-91
2021/09/20 00:12:30;;;;;;;6.00;2.40;;;8.50;99.90;;;;;;5006012;28;20022;-91
2021/09/20 00:14:56;;;;;;;3.63;2.40;;;8.50;99.90;;;;;;5011184;28;20038;-91
2021/09/20 00:17:22;;;;;;;5.05;2.67;;;8.40;99.90;;;;;;5006855;28;20053;-91
2021/09/20 00:19:47;;;;;;;3.10;2.63;;;8.40;99.90;;;;;;5007592;28;20026;-92
2021/09/20 00:22:13;;;;;;;3.47;2.53;;;8.40;99.90;;;;;;5008553;28;20022;-91
2021/09/20 00:24:39;;;;;;;3.83;2.17;;;8.50;99.90;;;;;;5001422;28;20038;-89
2021/09/20 00:27:07;;;;;;;5.47;2.63;;;8.40;99.90;;;;;;5011729;28;20026;-90
2021/09/20 00:29:33;;;;;;;3.65;2.50;;;8.50;99.90;;;;;;5011220;28;20032;-90
2021/09/20 00:31:59;;;;;;;2.58;2.00;;;8.40;99.90;;;;;;5010435;28;20058;-90
2021/09/20 00:34:25;;;;;;;4.30;2.60;;;8.40;99.90;;;;;;5009026;28;20124;-90
2021/09/20 00:36:51;;;;;;;5.07;2.70;;;8.40;99.90;;;;;;5010699;28;20497;-92
2021/09/20 00:39:16;;;;;;;2.80;2.17;;;8.40;99.90;;;;;;5008237;28;20034;-91
2021/09/20 00:41:42;;;;;;;3.53;2.25;;;8.50;99.90;;;;;;5009230;28;20022;-92
2021/09/20 00:44:08;;;;;;;3.97;2.47;;;8.40;99.90;;;;;;5010580;28;20128;-90
2021/09/20 00:46:34;;;;;;;4.43;2.42;;;8.40;99.90;;;;;;5011208;28;20037;-89
2021/09/20 00:49:00;;;;;;;2.72;2.28;;;8.40;99.90;;;;;;5002585;28;20027;-91
2021/09/20 00:51:26;;;;;;;4.47;2.90;;;8.40;99.90;;;;;;5012161;28;20022;-89
2021/09/20 00:53:51;;;;;;;4.45;2.20;;;8.40;99.90;;;;;;5009825;28;20042;-91
2021/09/20 00:56:17;;;;;;;3.22;2.55;;;8.40;99.90;;;;;;5007335;28;20068;-90
2021/09/20 00:58:43;;;;;;;3.30;2.47;;;8.40;99.90;;;;;;5011687;28;20022;-91
2021/09/20 01:01:09;;;;;;;5.90;2.60;;;8.40;99.90;;;;;;5008376;28;20113;-91
2021/09/20 01:03:34;;;;;;;5.68;2.63;;;8.40;99.90;;;;;;5009357;28;20392;-91
2021/09/20 01:06:00;;;;;;;3.88;2.20;;;8.40;99.90;;;;;;5011114;28;20499;-90
2021/09/20 01:08:27;;;;;;;3.47;2.45;;;8.40;99.90;;;;;;5008903;28;20017;-90
2021/09/20 01:10:53;;;;;;;4.03;2.85;;;8.40;99.90;;;;;;5010560;28;20030;-91
2021/09/20 01:13:18;;;;;;;5.55;2.80;;;8.40;99.90;;;;;;5011399;28;20434;-91
2021/09/20 01:15:44;;;;;;;5.20;3.15;;;8.40;99.90;;;;;;5003585;28;20034;-91
2021/09/20 01:18:10;;;;;;;3.05;2.35;;;8.50;99.90;;;;;;5010129;28;20026;-91
2021/09/20 01:20:36;;;;;;;4.85;2.55;;;8.50;99.90;;;;;;5010691;28;20395;-91
2021/09/20 01:23:03;;;;;;;4.03;2.55;;;8.50;99.90;;;;;;5002401;28;20018;-90
2021/09/20 01:25:30;;;;;;;4.85;2.75;;;8.40;99.90;;;;;;5012067;28;20026;-90
2021/09/20 01:27:57;;;;;;;5.00;2.85;;;8.50;99.90;;;;;;5002372;28;20030;-92
2021/09/20 01:30:23;;;;;;;5.70;2.25;;;8.40;99.90;;;;;;5011797;28;20041;-91
2021/09/20 01:32:49;;;;;;;2.75;2.38;;;8.50;99.90;;;;;;5008424;28;20045;-90
2021/09/20 01:35:19;;;;;;;4.35;2.50;;;8.40;99.90;;;;;;5005962;28;20503;-92
2021/09/20 01:37:45;;;;;;;;;;;8.40;99.90;;;;;;5003409;28;20034;-90
2021/09/20 01:40:12;;;;;;;4.50;2.75;;;8.40;99.90;;;;;;5004627;28;19916;-90
2021/09/20 01:42:38;;;;;;;6.57;2.95;;;8.40;99.90;;;;;;5012492;28;20501;-91
2021/09/20 01:45:05;;;;;;;4.00;2.53;;;8.40;99.90;;;;;;5000986;28;20476;-92
2021/09/20 01:47:31;;;;;;;5.75;2.70;;;8.40;99.90;;;;;;5008509;28;20026;-90
2021/09/20 01:49:56;;;;;;;3.72;2.70;;;8.40;99.90;;;;;;5009714;28;20510;-91
2021/09/20 01:52:23;;;;;;;4.43;2.50;;;8.40;99.90;;;;;;5003816;28;20386;-91
2021/09/20 01:54:48;;;;;;;3.15;2.33;;;8.40;99.90;;;;;;5003555;28;20040;-91
2021/09/20 01:57:14;;;;;;;2.75;2.28;;;8.30;99.90;;;;;;5008614;28;20423;-90
2021/09/20 01:59:40;;;;;;;4.57;2.47;;;8.40;99.90;;;;;;5005311;28;20037;-92
2021/09/20 02:02:06;;;;;;;3.45;2.25;;;8.40;99.90;;;;;;5008635;28;20116;-91
2021/09/20 02:04:32;;;;;;;3.85;2.20;;;8.40;99.90;;;;;;5009094;28;20144;-91
2021/09/20 02:06:57;;;;;;;2.85;1.83;;;8.40;99.90;;;;;;5008628;28;20046;-89
2021/09/20 02:09:23;;;;;;;3.42;2.08;;;8.30;99.90;;;;;;5007963;28;20030;-91
2021/09/20 02:11:49;;;;;;;2.58;2.00;;;8.30;99.90;;;;;;5010738;28;20038;-91
2021/09/20 02:14:14;;;;;;;2.78;1.98;;;8.30;99.90;;;;;;5013797;28;20037;-91
2021/09/20 02:16:40;;;;;;;3.45;2.40;;;8.30;99.90;;;;;;5012195;28;20041;-92
2021/09/20 02:19:06;;;;;;;3.60;2.20;;;8.40;99.90;;;;;;5017817;28;20163;-91
2021/09/20 02:21:32;;;;;;;3.25;2.00;;;8.40;99.90;;;;;;5011901;28;20086;-89
2021/09/20 02:23:58;;;;;;;3.55;1.90;;;8.40;99.90;;;;;;5009530;28;20046;-90
2021/09/20 02:26:24;;;;;;;2.13;1.80;;;8.30;99.90;;;;;;5003820;28;20034;-92
2021/09/20 02:28:49;;;;;;;2.38;1.63;;;8.30;99.90;;;;;;5011335;28;20018;-92
2021/09/20 02:31:15;;;;;;;2.92;2.53;;;8.30;99.90;;;;;;5008483;28;20487;-91
2021/09/20 02:33:41;;;;;;;4.32;2.70;;;8.30;99.90;;;;;;5011683;28;20476;-92
2021/09/20 02:36:07;;;;;;;3.45;2.53;;;8.30;99.90;;;;;;5012998;28;20022;-90
2021/09/20 02:38:34;;;;;;;2.78;2.03;;;8.30;99.90;;;;;;5022803;28;20076;-90
2021/09/20 02:41:00;;;;;;;2.55;1.85;;;8.30;99.90;;;;;;5020047;28;20033;-90
2021/09/20 02:43:26;;;;;;;2.63;1.63;;;8.30;99.90;;;;;;5004355;28;20058;-90
2021/09/20 02:45:52;;;;;;;2.83;1.90;;;8.30;99.90;;;;;;5013651;28;20037;-91
2021/09/20 02:48:18;;;;;;;4.57;1.55;;;8.30;99.90;;;;;;5012736;28;20383;-91
2021/09/20 02:50:44;;;;;;;5.28;2.00;;;8.20;99.90;;;;;;5013142;28;20026;-91
2021/09/20 02:53:10;;;;;;;2.40;1.45;;;8.20;99.90;;;;;;5013170;28;20061;-91
2021/09/20 02:55:35;;;;;;;5.15;2.17;;;8.20;99.90;;;;;;5016588;28;20084;-92
2021/09/20 02:58:02;;;;;;;2.78;1.45;;;8.20;99.90;;;;;;5012556;28;20025;-91
2021/09/20 03:00:28;;;;;;;4.10;1.40;;;8.20;99.90;;;;;;5004644;28;20120;-92
2021/09/20 03:02:54;;;;;;;1.90;1.63;;;8.20;99.90;;;;;;5010868;28;20014;-90
2021/09/20 03:05:19;;;;;;;5.85;1.42;;;8.20;99.90;;;;;;5009850;28;20041;-91
2021/09/20 03:07:45;;;;;;;2.25;1.63;;;8.20;99.90;;;;;;5012701;28;20021;-91
2021/09/20 03:10:11;;;;;;;2.50;1.55;;;8.10;99.90;;;;;;5013304;28;20124;-90
2021/09/20 03:12:37;;;;;;;7.70;1.70;;;8.20;99.90;;;;;;5014335;28;20152;-91
2021/09/20 03:15:04;;;;;;;2.10;1.48;;;8.20;99.90;;;;;;5011598;28;20193;-90
2021/09/20 03:17:29;;;;;;;3.67;1.48;;;8.10;99.90;;;;;;5011220;28;20018;-92
2021/09/20 03:19:55;;;;;;;4.05;1.77;;;8.10;99.90;;;;;;5003541;28;20037;-91
2021/09/20 03:22:21;;;;;;;1.90;1.35;;;8.10;99.90;;;;;;5011830;28;20033;-90
2021/09/20 03:24:46;;;;;;;2.30;1.50;;;8.10;99.90;;;;;;5011780;28;20187;-90
2021/09/20 03:27:12;;;;;;;2.80;1.70;;;8.20;99.90;;;;;;5011643;28;20516;-90
2021/09/20 03:29:38;;;;;;;2.92;1.70;;;8.20;99.90;;;;;;5010285;28;20357;-91
2021/09/20 03:32:04;;;;;;;5.90;3.28;;;8.20;99.90;;;;;;5007061;28;20041;-90
2021/09/20 03:34:29;;;;;;;6.07;1.85;;;8.10;99.90;;;;;;5007709;28;20080;-92
2021/09/20 03:36:55;;;;;;;3.72;2.33;;;8.10;99.90;;;;;;5007994;28;20018;-90
2021/09/20 03:39:21;;;;;;;3.78;1.90;;;8.10;99.90;;;;;;5012702;28;20087;-90
2021/09/20 03:41:46;;;;;;;4.57;1.73;;;8.10;99.90;;;;;;5010273;28;20025;-90
2021/09/20 03:44:12;;;;;;;3.47;2.13;;;8.10;99.90;;;;;;5009365;28;20045;-90
2021/09/20 03:46:38;;;;;;;2.05;1.80;;;8.10;99.90;;;;;;5011977;28;20037;-89
2021/09/20 03:49:04;;;;;;;2.55;1.85;;;8.10;99.90;;;;;;5011130;28;20026;-90
2021/09/20 03:51:30;;;;;;;3.35;1.80;;;8.10;99.90;;;;;;5012748;28;20067;-91
2021/09/20 03:53:55;;;;;;;3.63;1.95;;;8.10;99.90;;;;;;5009160;28;20411;-90
2021/09/20 03:56:21;;;;;;;2.65;1.90;;;8.10;99.90;;;;;;5010928;28;20028;-91
2021/09/20 03:58:47;;;;;;;3.40;2.90;;;8.10;99.90;;;;;;5005642;28;20021;-92
2021/09/20 04:01:12;;;;;;;3.97;2.03;;;8.10;99.90;;;;;;5006103;28;20037;-91
2021/09/20 04:03:38;;;;;;;5.72;2.53;;;8.10;99.90;;;;;;5012788;28;20029;-91
2021/09/20 04:06:04;;;;;;;3.55;2.20;;;8.10;99.90;;;;;;5008576;28;20480;-90
2021/09/20 04:08:30;;;;;;;3.90;2.22;;;8.10;99.90;;;;;;5005603;28;20395;-90
2021/09/20 04:10:56;;;;;;;4.15;1.70;;;8.10;99.90;;;;;;5004228;28;20040;-91
2021/09/20 04:13:22;;;;;;;2.53;1.65;;;8.10;99.90;;;;;;5011284;28;20486;-91
2021/09/20 04:15:53;;;;;;;3.00;1.98;;;8.10;99.90;;;;;;5010708;28;20014;-92
2021/09/20 04:18:19;;;;;;;2.80;1.92;;;8.00;99.90;;;;;;5012317;28;20087;-90
2021/09/20 04:20:45;;;;;;;4.45;1.88;;;8.00;99.90;;;;;;5006942;28;20475;-91
2021/09/20 04:23:11;;;;;;;4.03;1.92;;;8.00;99.90;;;;;;5010958;28;20088;-92
2021/09/20 04:25:37;;;;;;;3.20;1.88;;;8.00;99.90;;;;;;5010337;28;20040;-90
2021/09/20 04:28:02;;;;;;;2.60;2.00;;;8.10;99.90;;;;;;5008419;28;20014;-91
2021/09/20 04:30:28;;;;;;;3.58;1.95;;;8.00;99.90;;;;;;5010794;28;20033;-90
2021/09/20 04:32:54;;;;;;;1.60;1.33;;;8.00;99.90;;;;;;5009723;28;20448;-91
2021/09/20 04:35:19;;;;;;;1.85;1.55;;;8.00;99.90;;;;;;5010947;28;20109;-90
2021/09/20 04:37:45;;;;;;;4.00;1.90;;;8.00;99.90;;;;;;5009625;28;20018;-91
2021/09/20 04:40:11;;;;;;;2.08;1.50;;;8.10;99.90;;;;;;5010493;28;20026;-90
2021/09/20 04:42:37;;;;;;;2.45;1.50;;;8.10;99.90;;;;;;5007055;28;20092;-91
2021/09/20 04:45:03;;;;;;;2.05;1.48;;;8.00;99.90;;;;;;5009220;28;20487;-91
2021/09/20 04:47:28;;;;;;;2.10;1.77;;;8.00;99.90;;;;;;5003022;28;20026;-92
2021/09/20 04:49:54;;;;;;;5.38;1.40;;;8.00;99.90;;;;;;5001723;28;20160;-90
2021/09/20 04:52:20;;;;;;;2.05;1.40;;;8.10;99.90;;;;;;5007743;28;20018;-90
2021/09/20 04:54:45;;;;;;;3.60;2.03;;;8.10;99.90;;;;;;5013747;28;20049;-90
2021/09/20 04:57:11;;;;;;;3.13;1.40;;;8.10;99.90;;;;;;5009607;28;20028;-91
2021/09/20 04:59:37;;;;;;;4.57;1.60;;;8.00;99.90;;;;;;5002536;28;20535;-91
2021/09/20 05:02:02;;;;;;;4.68;1.48;;;8.10;99.90;;;;;;5009923;28;20541;-90
2021/09/20 05:04:28;;;;;;;5.57;1.67;;;8.10;99.90;;;;;;5007710;28;20048;-90
2021/09/20 05:06:54;;;;;;;2.53;1.52;;;8.10;99.90;;;;;;5008406;28;20495;-90
2021/09/20 05:09:19;;;;;;;5.35;2.00;;;8.10;99.90;;;;;;5009280;28;20552;-90
2021/09/20 05:11:45;;;;;;;6.18;1.88;;;8.10;99.90;;;;;;5004621;28;20105;-91
2021/09/20 05:14:11;;;;;;;3.42;1.60;;;8.10;99.90;;;;;;5006464;28;20026;-91
2021/09/20 05:16:36;;;;;;;3.17;1.50;;;8.10;99.90;;;;;;5011544;28;20108;-90
2021/09/20 05:19:02;;;;;;;4.50;1.75;;;8.10;99.90;;;;;;5005563;28;20104;-91
2021/09/20 05:21:28;;;;;;;3.70;1.70;;;8.10;99.90;;;;;;5012584;28;20022;-89
2021/09/20 05:23:53;;;;;;;3.53;1.60;;;8.10;99.90;;;;;;5009221;28;20026;-90
2021/09/20 05:26:20;;;;;;;3.92;1.85;;;8.20;99.90;;;;;;5010019;28;20109;-91
2021/09/20 05:28:46;;;;;;;4.35;1.77;;;8.30;99.90;;;;;;5009394;28;20029;-90
2021/09/20 05:31:12;;;;;;;3.45;1.58;;;8.30;99.90;;;;;;5009643;28;20023;-90
2021/09/20 05:33:38;;;;;;;2.70;1.83;;;8.30;99.90;;;;;;5005970;28;20018;-90
2021/09/20 05:36:06;;;;;;;3.15;2.00;;;8.30;99.90;;;;;;5011008;28;20025;-91
2021/09/20 05:38:32;;;;;;;10.77;2.20;;;8.30;99.90;;;;;;5006400;28;20026;-90
2021/09/20 05:40:58;;;;;;;3.75;1.92;;;8.40;99.90;;;;;;5013876;28;20061;-90
2021/09/20 05:43:25;;;;;;;3.20;1.80;;;8.40;99.90;;;;;;5013672;28;20048;-90
2021/09/20 05:45:50;;;;;;;2.60;1.70;;;8.40;99.90;;;;;;5011282;28;20400;-91
2021/09/20 05:48:18;;;;;;;5.13;2.00;;;8.30;99.90;;;;;;5006695;28;20030;-89
2021/09/20 05:50:44;;;;;;;2.97;1.60;;;8.30;99.90;;;;;;5010063;28;20022;-90
2021/09/20 05:53:11;;;;;;;4.32;2.00;;;8.20;99.90;;;;;;5006266;28;20083;-91
2021/09/20 05:55:37;;;;;;;2.90;1.65;;;8.20;99.90;;;;;;5005815;28;20029;-89
2021/09/20 05:58:03;;;;;;;3.13;1.70;;;8.10;99.90;;;;;;5009375;28;20112;-91
2021/09/20 06:00:29;;;;;;;2.78;1.65;;;8.20;99.90;;;;;;5013754;28;20072;-89
2021/09/20 06:02:55;;;;;;;3.70;1.88;;;8.10;99.90;;;;;;5010879;28;20040;-90
2021/09/20 06:05:21;;;;;;;2.85;1.13;;;8.10;99.90;;;;;;5010866;28;20033;-91
2021/09/20 06:07:48;;;;;;;2.63;1.17;;;8.00;99.90;;;;;;5009837;28;20390;-90
2021/09/20 06:10:15;;;;;;;2.50;0.95;;;8.00;99.90;;;;;;5003972;28;23739;-89
2021/09/20 06:12:41;;;;;;;2.65;1.00;;;7.90;99.90;;;;;;5011345;28;20430;-90
2021/09/20 06:15:08;;;;;;;2.30;1.10;;;7.80;99.90;;;;;;5010008;28;20116;-89
2021/09/20 06:17:34;;;;;;;3.25;0.95;;;7.70;99.90;;;;;;5005148;28;20201;-90
2021/09/20 06:20:00;;;;;;;3.15;1.10;;;7.60;99.90;;;;;;5000939;28;20026;-89
2021/09/20 06:22:26;;;;;;;1.85;1.02;;;7.60;99.90;;;;;;5008472;28;20026;-90
2021/09/20 06:24:54;;;;;;;2.85;0.88;;;7.60;99.90;;;;;;5011450;28;20396;-89
2021/09/20 06:27:20;;;;;;;3.38;1.02;;;7.50;99.90;;;;;;5011904;28;20030;-91
2021/09/20 06:29:45;;;;;;;2.97;1.10;;;7.50;99.90;;;;;;5006566;28;20036;-90
2021/09/20 06:32:11;;;;;;;5.28;0.90;;;7.60;99.90;;;;;;5003290;28;20108;-90
2021/09/20 06:34:37;;;;;;;7.13;1.30;;;7.60;99.90;;;;;;5009322;28;20460;-89
2021/09/20 06:37:03;;;;;;;1.50;1.20;;;7.60;99.90;;;;;;5011512;28;20018;-93
2021/09/20 06:39:28;;;;;;;2.30;1.30;;;7.60;99.90;;;;;;5010941;28;20506;-90
2021/09/20 06:41:54;;;;;;;2.38;1.27;;;7.60;99.90;;;;;;5010645;28;20025;-90
2021/09/20 06:44:20;;;;;;;2.67;1.58;;;7.70;99.90;;;;;;5002275;28;20498;-91
2021/09/20 06:46:45;;;;;;;2.30;1.48;;;7.80;99.90;;;;;;4996517;28;20076;-92
2021/09/20 06:49:11;;;;;;;3.65;1.38;;;7.80;99.90;;;;;;5006412;28;20022;-88
2021/09/20 06:51:37;;;;;;;1.73;1.40;;;7.90;99.90;;;;;;5007128;28;20026;-90
2021/09/20 06:54:03;;;;;;;8.40;1.83;;;7.90;99.90;;;;;;5008236;28;20200;-89
2021/09/20 06:56:29;;;;;;;1.92;1.40;;;8.00;99.90;;;;;;5010178;28;20029;-90
2021/09/20 06:58:54;;;;;;;2.08;1.40;;;8.10;99.90;;;;;;5003735;28;20038;-89
2021/09/20 07:01:20;;;;;;;3.53;1.55;;;8.20;99.90;;;;;;5010190;28;20111;-89
2021/09/20 07:03:46;;;;;;;2.38;1.45;;;8.30;99.90;;;;;;5010536;28;20460;-88
2021/09/20 07:06:12;;;;;;;4.35;1.33;;;8.30;99.90;;;;;;5011484;28;20034;-91
2021/09/20 07:08:38;;;;;;;7.03;1.70;;;8.40;99.90;;;;;;5011116;28;20081;-88
2021/09/20 07:11:03;;;;;;;2.50;1.58;;;8.50;99.90;;;;;;5011778;28;20152;-90
2021/09/20 07:13:29;;;;;;;2.17;1.48;;;8.50;99.90;;;;;;5010568;28;20076;-89
2021/09/20 07:15:55;;;;;;;3.13;1.48;;;8.60;99.90;;;;;;5008585;28;20038;-90
2021/09/20 07:18:20;;;;;;;2.88;1.63;;;8.70;99.90;;;;;;5003088;28;20057;-90
2021/09/20 07:20:46;;;;;;;3.05;1.70;;;8.70;99.90;;;;;;5011057;28;20192;-89
2021/09/20 07:23:13;;;;;;;3.22;1.10;;;8.70;99.90;;;;;;5010552;28;20424;-90
2021/09/20 07:25:39;;;;;;;3.72;1.20;;;8.70;99.90;;;;;;5010514;28;20403;-88
2021/09/20 07:28:05;;;;;;;2.03;1.20;;;8.70;99.90;;;;;;5010977;28;20050;-88
2021/09/20 07:30:31;;;;;;;2.03;1.17;;;8.70;99.90;;;;;;5011879;28;20525;-89
2021/09/20 07:32:57;;;;;;;3.33;1.30;;;8.70;99.90;;;;;;5012742;28;20177;-90
2021/09/20 07:35:23;;;;;;;3.15;1.50;;;8.70;99.90;;;;;;5011052;28;20087;-91
2021/09/20 07:37:54;;;;;;;2.90;1.65;;;8.60;99.90;;;;;;5009288;28;20399;-91
2021/09/20 07:40:23;;;;;;;2.30;1.50;;;8.60;99.90;;;;;;5008375;28;20059;-90
2021/09/20 07:42:50;;;;;;;3.22;1.70;;;8.60;99.90;;;;;;5012075;28;20029;-91
2021/09/20 07:45:16;;;;;;;4.05;1.85;;;8.60;99.90;;;;;;5010376;28;20042;-91
2021/09/20 07:47:42;;;;;;;2.35;1.42;;;8.60;99.90;;;;;;5010422;28;20411;-89
2021/09/20 07:50:09;;;;;;;4.22;1.58;;;8.60;99.90;;;;;;5008066;28;20595;-89
2021/09/20 07:52:35;;;;;;;4.10;1.35;;;8.70;99.90;;;;;;5007705;28;20025;-91
2021/09/20 07:55:01;;;;;;;3.20;1.27;;;8.60;99.90;;;;;;5008126;28;20488;-92
2021/09/20 07:57:27;;;;;;;1.25;0.95;;;8.70;99.90;;;;;;5011425;28;20151;-91
2021/09/20 07:59:53;;;;;;;3.10;1.75;;;8.70;99.90;;;;;;5009826;28;20030;-92
2021/09/20 08:02:18;;;;;;;1.55;1.05;;;8.70;99.90;;;;;;5010055;28;20077;-91
2021/09/20 08:04:45;;;;;;;3.92;1.10;;;8.70;99.90;;;;;;5011373;28;20029;-92
2021/09/20 08:07:12;;;;;;;2.92;1.10;;;8.70;99.90;;;;;;5009231;28;20022;-90
2021/09/20 08:09:38;;;;;;;2.05;1.20;;;8.80;99.90;;;;;;5011569;28;20030;-93
2021/09/20 08:12:04;;;;;;;3.50;2.13;;;8.90;99.90;;;;;;5011650;28;20026;-92
2021/09/20 08:14:30;;;;;;;2.95;1.35;;;8.90;99.90;;;;;;5009539;28;20056;-92
2021/09/20 08:16:55;;;;;;;2.08;1.30;;;8.90;99.90;;;;;;5007153;28;20037;-91
2021/09/20 08:19:22;;;;;;;1.50;1.23;;;9.00;99.90;;;;;;5007690;28;20428;-91
2021/09/20 08:21:48;;;;;;;2.97;1.23;;;9.00;99.90;;;;;;5009888;28;20023;-91
2021/09/20 08:24:15;;;;;;;2.95;1.40;;;9.10;99.90;;;;;;5010522;28;20053;-92
2021/09/20 08:26:41;;;;;;;3.65;1.05;;;9.20;99.90;;;;;;5006045;28;20530;-92
2021/09/20 08:29:06;;;;;;;2.33;1.17;;;9.20;99.90;;;;;;5008168;28;20141;-93
2021/09/20 08:31:32;;;;;;;2.38;0.90;;;9.20;99.90;;;;;;5009081;28;20113;-92
2021/09/20 08:33:58;;;;;;;4.93;1.10;;;9.20;99.90;;;;;;5000688;28;20112;-91
2021/09/20 08:36:24;;;;;;;1.08;0.80;;;9.30;99.90;;;;;;5001734;28;20072;-92
2021/09/20 08:38:50;;;;;;;4.03;1.17;;;9.30;99.90;;;;;;4989531;28;20129;-92
2021/09/20 08:41:17;;;;;;;1.42;0.90;;;9.30;99.90;;;;;;4999225;28;20033;-91
2021/09/20 08:43:43;;;;;;;1.83;0.98;;;9.30;99.90;;;;;;5005246;28;20033;-89
2021/09/20 08:46:10;;;;;;;1.13;0.80;;;9.20;99.90;;;;;;5010889;28;20052;-90
2021/09/20 08:48:40;;;;;;;2.15;0.85;;;9.20;99.90;;;;;;5009845;28;20022;-93
2021/09/20 08:51:06;;;;;;;2.55;0.90;;;9.20;99.90;;;;;;5002281;28;20041;-89
2021/09/20 08:53:31;;;;;;;2.35;1.20;;;9.20;99.90;;;;;;5007865;28;20070;-90
2021/09/20 08:55:58;;;;;;;1.33;0.95;;;9.20;99.90;;;;;;5005091;28;20057;-92
2021/09/20 08:58:25;;;;;;;1.17;0.98;;;9.10;99.90;;;;;;5007292;28;20088;-92
2021/09/20 09:00:51;;;;;;;2.80;0.95;;;9.20;99.90;;;;;;5002388;28;20116;-92
2021/09/20 09:03:22;;;;;;;1.90;1.40;;;9.20;99.90;;;;;;5001328;28;20033;-91
2021/09/20 09:05:49;;;;;;;2.63;1.02;;;9.30;99.90;;;;;;5005789;28;20084;-92
2021/09/20 09:08:18;;;;;;;2.25;1.10;;;9.40;99.90;;;;;;4998754;28;20037;-90
2021/09/20 09:10:58;;;;;;;1.80;1.08;;;9.40;99.90;;;;;;5007854;28;20022;-91
2021/09/20 09:13:33;;;;;;;2.05;0.85;;;9.30;99.90;;;;;;5002038;28;20025;-93
2021/09/20 09:16:12;;;;;;;1.73;1.05;;;9.30;99.90;;;;;;5003466;28;20037;-90
2021/09/20 09:19:00;;;;;;;1.33;0.98;;;9.30;99.90;;;;;;5006405;28;20030;-90
2021/09/20 09:21:32;;;;;;;2.70;0.80;;;9.20;99.90;;;;;;5003323;28;20492;-90
2021/09/20 09:24:21;;;;;;;2.20;0.88;;;9.10;99.90;;;;;;5004552;28;20033;-90
2021/09/20 09:26:59;;;;;;;4.57;1.20;;;9.10;99.90;;;;;;5002865;28;20543;-90
2021/09/20 09:29:28;;;;;;;5.35;1.15;;;9.00;99.90;;;;;;5003438;28;20048;-91
2021/09/20 09:31:57;;;;;;;3.70;1.50;;;9.00;99.90;;;;;;5004649;28;20137;-90
2021/09/20 09:34:31;;;;;;;1.75;1.20;;;9.00;99.90;;;;;;5003777;28;20034;-91
2021/09/20 09:37:13;;;;;;;3.33;1.15;;;9.20;99.90;;;;;;5004497;28;20069;-92
2021/09/20 09:39:40;;;;;;;2.63;1.40;;;9.50;99.90;;;;;;5000030;28;20081;-92
2021/09/20 09:42:22;;;;;;;2.47;0.95;;;9.50;99.90;;;;;;5003803;28;20026;-90
2021/09/20 09:44:48;;;;;;;2.30;1.30;;;9.50;99.90;;;;;;5000412;28;20345;-90
2021/09/20 09:47:27;;;;;;;2.60;1.35;;;9.50;99.90;;;;;;5001865;28;20030;-89
2021/09/20 09:50:13;;;;;;;2.22;1.50;;;9.40;99.90;;;;;;5001213;28;20058;-89
2021/09/20 09:52:39;;;;;;;2.00;1.20;;;9.40;99.90;;;;;;4999686;28;20034;-90
2021/09/20 09:55:06;;;;;;;2.03;1.10;;;9.40;99.90;;;;;;5006639;28;20092;-91
2021/09/20 09:57:33;;;;;;;4.22;1.65;;;9.30;99.90;;;;;;5004476;28;20066;-93
2021/09/20 10:00:01;;;;;;;2.88;1.50;;;9.30;99.90;;;;;;4998995;28;21485;-91
2021/09/20 10:02:30;;;;;;;2.80;1.65;;;9.40;99.90;;;;;;5006626;28;20101;-90
2021/09/20 10:05:01;;;;;;;2.13;1.25;;;9.50;99.90;;;;;;4999393;28;20034;-89
2021/09/20 10:07:36;;;;;;;1.65;1.08;;;9.50;99.90;;;;;;5007673;28;20093;-92
2021/09/20 10:10:06;;;;;;;3.53;1.50;;;9.50;99.90;;;;;;4998456;28;20064;-90
2021/09/20 10:12:33;;;;;;;1.95;1.20;;;9.40;99.90;;;;;;5004045;28;20407;-90
2021/09/20 10:15:00;;;;;;;5.13;1.50;;;9.40;99.90;;;;;;5003051;28;20029;-91
2021/09/20 10:17:28;;;;;;;4.30;1.25;;;9.40;99.90;;;;;;5000585;28;20490;-92
2021/09/20 10:19:54;;;;;;;2.92;1.30;;;9.40;99.90;;;;;;5001783;28;20029;-91
2021/09/20 10:22:21;;;;;;;2.78;1.00;;;9.50;99.90;;;;;;5001206;28;20129;-92
2021/09/20 10:24:51;;;;;;;2.15;1.20;;;9.60;99.90;;;;;;5008313;28;20090;-92
2021/09/20 10:27:20;;;;;;;2.22;1.20;;;9.60;99.90;;;;;;5001341;28;20018;-90
2021/09/20 10:29:53;;;;;;;2.00;1.52;;;9.60;99.90;;;;;;5003536;28;20030;-90
2021/09/20 10:32:20;;;;;;;2.67;1.45;;;9.50;99.90;;;;;;4999285;28;20018;-89
2021/09/20 10:34:48;;;;;;;2.33;1.20;;;9.50;99.90;;;;;;5002738;28;20030;-90
2021/09/20 10:37:16;;;;;;;3.17;1.25;;;9.50;99.90;;;;;;5008207;28;20026;-89
2021/09/20 10:39:45;;;;;;;4.15;1.33;;;9.50;99.90;;;;;;5004478;28;20018;-92
2021/09/20 10:42:31;;;;;;;1.70;1.30;;;9.60;99.90;;;;;;5011887;28;20065;-92
2021/09/20 10:44:57;;;;;;;2.38;1.48;;;9.50;99.90;;;;;;5003208;28;20052;-92
2021/09/20 10:47:24;;;;;;;1.85;1.35;;;9.50;99.90;;;;;;5008418;28;20026;-89
2021/09/20 10:49:50;;;;;;;1.52;1.00;;;9.50;99.90;;;;;;5006716;28;20491;-91
2021/09/20 10:52:17;;;;;;;2.15;1.30;;;9.50;99.90;;;;;;5007318;28;20026;-90
2021/09/20 10:55:08;;;;;;;2.55;1.30;;;9.40;99.90;;;;;;5007828;28;20158;-92
2021/09/20 10:57:35;;;;;;;2.45;1.20;;;9.40;99.90;;;;;;5005057;28;20037;-90
2021/09/20 11:00:24;;;;;;;1.40;1.17;;;9.30;99.90;;;;;;5008282;28;20026;-92
2021/09/20 11:02:50;;;;;;;2.17;1.30;;;9.30;99.90;;;;;;5004055;28;20037;-91
2021/09/20 11:05:24;;;;;;;2.90;1.38;;;9.30;99.90;;;;;;5007254;28;20030;-92
2021/09/20 11:07:51;;;;;;;1.55;1.17;;;9.30;99.90;;;;;;5003206;28;20124;-90
2021/09/20 11:10:28;;;;;;;1.92;1.52;;;9.20;99.90;;;;;;5004060;28;20098;-91
2021/09/20 11:13:12;;;;;;;1.65;1.35;;;9.20;99.90;;;;;;5003283;28;20017;-89
2021/09/20 11:15:43;;;;;;;5.60;2.00;;;9.10;99.90;;;;;;5007163;28;20029;-91
2021/09/20 11:18:09;;;;;;;2.63;1.60;;;9.10;99.90;;;;;;5007890;28;20029;-91
2021/09/20 11:20:35;;;;;;;2.40;1.27;;;9.20;99.90;;;;;;5004176;28;20091;-92
2021/09/20 11:23:21;;;;;;;2.25;1.67;;;9.20;99.90;;;;;;5008901;28;20486;-92
2021/09/20 11:26:05;;;;;;;3.22;1.40;;;9.30;99.90;;;;;;5001653;28;20041;-92
2021/09/20 11:28:36;;;;;;;2.22;1.20;;;9.30;99.90;;;;;;5005743;28;20112;-91
2021/09/20 11:31:02;;;;;;;1.92;1.67;;;9.20;99.90;;;;;;5005130;28;20036;-91
2021/09/20 11:33:40;;;;;;;2.35;1.35;;;9.20;99.90;;;;;;5006086;28;20034;-93
2021/09/20 11:36:21;;;;;;;2.53;1.60;;;9.40;99.90;;;;;;5007289;28;20037;-92
2021/09/20 11:38:48;;;;;;;2.38;1.55;;;9.50;99.90;;;;;;5009723;28;20479;-92
2021/09/20 11:41:23;;;;;;;3.35;1.45;;;9.60;99.90;;;;;;5009820;28;20030;-90
2021/09/20 11:43:50;;;;;;;1.90;1.30;;;9.60;99.90;;;;;;5009748;28;20033;-91
2021/09/20 11:46:22;;;;;;;4.75;1.60;;;9.60;99.90;;;;;;5006729;28;20117;-91
2021/09/20 11:48:48;;;;;;;1.27;1.05;;;9.70;99.90;;;;;;5005454;28;20535;-90
2021/09/20 11:51:24;;;;;;;3.58;1.52;;;9.70;99.90;;;;;;5020393;28;20068;-91
2021/09/20 11:53:49;;;;;;;3.38;1.63;;;9.80;99.90;;;;;;5019517;28;20390;-93
2021/09/20 11:56:15;;;;;;;3.78;1.60;;;9.80;99.90;;;;;;5006595;28;20109;-91
2021/09/20 11:58:54;;;;;;;1.70;1.17;;;9.80;99.90;;;;;;5010359;28;20037;-93
2021/09/20 12:01:22;;;;;;;2.45;1.38;;;9.80;99.90;;;;;;5005880;28;20022;-91
2021/09/20 12:03:51;;;;;;;2.92;1.55;;;9.70;99.90;;;;;;5010445;28;20038;-93
2021/09/20 12:06:17;;;;;;;4.93;1.58;;;9.70;99.90;;;;;;5005858;28;20035;-93
2021/09/20 12:08:43;;;;;;;2.65;1.30;;;9.70;99.90;;;;;;5008500;28;20032;-91
2021/09/20 12:11:09;;;;;;;2.42;1.55;;;9.60;99.90;;;;;;5007349;28;20038;-91
2021/09/20 12:13:35;;;;;;;3.50;1.65;;;9.60;99.90;;;;;;5009826;28;20041;-91
2021/09/20 12:16:08;;;;;;;2.50;1.40;;;9.50;99.90;;;;;;5010215;28;20113;-91
2021/09/20 12:18:35;;;;;;;2.72;1.52;;;9.50;99.90;;;;;;5009567;28;20045;-92
2021/09/20 12:21:12;;;;;;;3.33;1.40;;;9.40;99.90;;;;;;5008625;28;20034;-93
2021/09/20 12:23:49;;;;;;;2.70;1.40;;;9.50;99.90;;;;;;5009356;28;20117;-91
2021/09/20 12:26:18;;;;;;;2.35;1.30;;;9.40;99.90;;;;;;5008074;28;20033;-91
2021/09/20 12:28:55;;;;;;;2.63;1.40;;;9.50;99.90;;;;;;5008689;28;20014;-90
2021/09/20 12:31:39;;;;;;;3.60;1.65;;;9.50;99.90;;;;;;5007110;28;20079;-90
2021/09/20 12:34:16;;;;;;;3.60;1.50;;;9.50;99.90;;;;;;5010591;28;20510;-93
2021/09/20 12:36:48;;;;;;;2.45;1.17;;;9.50;99.90;;;;;;5003625;28;20041;-92
2021/09/20 12:39:25;;;;;;;2.22;1.38;;;9.50;99.90;;;;;;5008523;28;20080;-91
2021/09/20 12:41:56;;;;;;;2.85;1.85;;;9.60;99.90;;;;;;5009326;28;20038;-91
2021/09/20 12:44:36;;;;;;;1.83;1.00;;;9.50;99.90;;;;;;5008094;28;20092;-89
2021/09/20 12:47:19;;;;;;;1.83;1.40;;;9.50;99.90;;;;;;5009727;28;20053;-92
2021/09/20 12:50:05;;;;;;;2.15;1.30;;;9.50;99.90;;;;;;5013058;28;20119;-93
2021/09/20 12:52:39;;;;;;;1.63;1.02;;;9.60;99.90;;;;;;5012049;28;20033;-91
2021/09/20 12:55:06;;;;;;;3.97;1.20;;;9.50;99.90;;;;;;5008150;28;20041;-91
2021/09/20 12:57:33;;;;;;;3.25;1.75;;;9.50;99.90;;;;;;5008778;28;20510;-91
2021/09/20 13:00:13;;;;;;;3.10;1.60;;;9.40;99.90;;;;;;5002401;28;20045;-90